createdAt,value
2024-03-16T00:01:31.379Z,100155.72
2024-03-16T00:04:05.119Z,100151.94
2024-03-16T00:06:36.451Z,100151.94
2024-03-16T00:09:03.816Z,100140.38
2024-03-16T00:11:31.360Z,100139.59
2024-03-16T00:13:57.894Z,100139.59
2024-03-16T00:16:32.130Z,100139.31
2024-03-16T00:19:01.929Z,100141.19
2024-03-16T00:21:29.446Z,100144.97
2024-03-16T00:23:59.414Z,100137.69
2024-03-16T00:26:29.142Z,100140.38
2024-03-16T00:28:55.826Z,100135.00
2024-03-16T00:31:22.856Z,100143.88
2024-03-16T00:33:50.703Z,100135.00
2024-03-16T00:36:19.535Z,100133.13
2024-03-16T00:38:46.464Z,100138.50
2024-03-16T00:41:20.148Z,100136.91
2024-03-16T00:43:52.376Z,100143.06
2024-03-16T00:46:26.546Z,100138.78
2024-03-16T00:48:54.052Z,100134.22
2024-03-16T00:51:20.949Z,100135.31
2024-03-16T00:53:53.720Z,100135.00
2024-03-16T00:56:23.203Z,100129.63
2024-03-16T00:58:57.672Z,100127.25
2024-03-16T01:01:28.199Z,100134.22
2024-03-16T01:04:00.879Z,100129.94
2024-03-16T01:06:31.065Z,100131.53
2024-03-16T01:08:58.060Z,100138.00
2024-03-16T01:11:30.812Z,100138.78
2024-03-16T01:14:02.281Z,100131.00
2024-03-16T01:16:36.119Z,100130.19
2024-03-16T01:19:06.904Z,100131.00
2024-03-16T01:21:36.950Z,100134.78
2024-03-16T01:24:09.155Z,100134.00
2024-03-16T01:26:42.800Z,100130.19
2024-03-16T01:29:13.501Z,100133.19
2024-03-16T01:31:46.235Z,100131.31
2024-03-16T01:34:17.582Z,100133.19
2024-03-16T01:36:48.213Z,100128.87
2024-03-16T01:39:16.558Z,100130.78
2024-03-16T01:41:49.104Z,100124.59
2024-03-16T01:44:21.914Z,100125.41
2024-03-16T01:46:48.658Z,100136.16
2024-03-16T01:49:18.851Z,100127.28
2024-03-16T01:51:45.756Z,100123.50
2024-03-16T01:54:13.696Z,100120.03
2024-03-16T01:56:46.827Z,100124.59
2024-03-16T01:59:20.061Z,100123.00
2024-03-16T02:01:46.812Z,100117.63
2024-03-16T02:04:16.759Z,100123.81
2024-03-16T02:06:46.152Z,100123.00
2024-03-16T02:09:19.380Z,100128.41
2024-03-16T02:11:50.004Z,100129.97
2024-03-16T02:14:17.113Z,100124.59
2024-03-16T02:16:45.374Z,100124.59
2024-03-16T02:19:15.417Z,100133.78
2024-03-16T02:21:44.716Z,100126.81
2024-03-16T02:24:14.912Z,100137.56
2024-03-16T02:26:41.727Z,100130.56
2024-03-16T02:29:14.701Z,100133.25
2024-03-16T02:31:44.686Z,100145.91
2024-03-16T02:34:15.881Z,100144.31
2024-03-16T02:36:43.019Z,100151.28
2024-03-16T02:39:10.083Z,100147.81
2024-03-16T02:41:36.924Z,100156.66
2024-03-16T02:44:03.726Z,100152.91
2024-03-16T02:46:30.284Z,100152.06
2024-03-16T02:49:00.130Z,100154.78
2024-03-16T02:51:27.350Z,100157.47
2024-03-16T02:53:55.239Z,100160.97
2024-03-16T02:56:22.748Z,100153.19
2024-03-16T02:58:51.456Z,100162.03
2024-03-16T03:01:19.036Z,100150.50
2024-03-16T03:03:50.719Z,100148.91
2024-03-16T03:06:17.453Z,100138.13
2024-03-16T03:08:44.815Z,100143.53
2024-03-16T03:11:11.575Z,100140.81
2024-03-16T03:13:41.738Z,100140.31
2024-03-16T03:16:09.948Z,100137.62
2024-03-16T03:18:39.371Z,100135.22
2024-03-16T03:21:07.118Z,100137.91
2024-03-16T03:23:34.906Z,100139.81
2024-03-16T03:26:03.734Z,100130.94
2024-03-16T03:28:33.625Z,100137.12
2024-03-16T03:31:01.079Z,100137.12
2024-03-16T03:33:27.949Z,100135.53
2024-03-16T03:35:54.796Z,100135.53
2024-03-16T03:38:28.386Z,100140.09
2024-03-16T03:40:55.949Z,100132.31
2024-03-16T03:43:23.889Z,100140.91
2024-03-16T03:45:51.594Z,100132.31
2024-03-16T03:48:19.500Z,100132.00
2024-03-16T03:50:46.641Z,100133.13
2024-03-16T03:53:14.753Z,100133.13
2024-03-16T03:55:43.734Z,100130.16
2024-03-16T03:58:10.785Z,100135.53
2024-03-16T04:00:38.091Z,100132.31
2024-03-16T04:03:05.855Z,100140.09
2024-03-16T04:05:32.585Z,100132.31
2024-03-16T04:08:00.307Z,100136.09
2024-03-16T04:10:29.818Z,100139.91
2024-03-16T04:12:56.552Z,100145.28
2024-03-16T04:15:23.409Z,100147.97
2024-03-16T04:17:51.528Z,100151.72
2024-03-16T04:20:19.127Z,100147.44
2024-03-16T04:22:45.968Z,100147.44
2024-03-16T04:25:14.618Z,100143.16
2024-03-16T04:27:43.781Z,100145.84
2024-03-16T04:30:12.283Z,100145.84
2024-03-16T04:32:39.461Z,100152.03
2024-03-16T04:35:10.588Z,100152.03
2024-03-16T04:37:37.611Z,100155.00
2024-03-16T04:40:05.306Z,100156.59
2024-03-16T04:42:36.785Z,100158.19
2024-03-16T04:45:09.719Z,100158.19
2024-03-16T04:47:46.137Z,100162.78
2024-03-16T04:50:13.154Z,100167.34
2024-03-16T04:52:42.767Z,100161.19
2024-03-16T04:55:10.114Z,100159.28
2024-03-16T04:57:37.370Z,100161.97
2024-03-16T05:00:04.251Z,100161.97
2024-03-16T05:02:33.662Z,100161.97
2024-03-16T05:05:00.578Z,100164.16
2024-03-16T05:07:27.464Z,100156.06
2024-03-16T05:09:54.924Z,100163.34
2024-03-16T05:12:22.115Z,100174.09
2024-03-16T05:14:54.214Z,100173.31
2024-03-16T05:17:20.956Z,100170.62
2024-03-16T05:19:48.114Z,100167.94
2024-03-16T05:22:17.992Z,100170.62
2024-03-16T05:24:45.436Z,100177.09
2024-03-16T05:27:12.621Z,100190.53
2024-03-16T05:29:39.518Z,100198.59
2024-03-16T05:32:07.101Z,100188.91
2024-03-16T05:34:35.300Z,100191.59
2024-03-16T05:37:04.286Z,100200.50
2024-03-16T05:39:32.428Z,100200.50
2024-03-16T05:41:59.742Z,100206.16
2024-03-16T05:44:27.078Z,100200.78
2024-03-16T05:46:54.758Z,100195.41
2024-03-16T05:49:23.837Z,100201.28
2024-03-16T05:51:52.277Z,100202.09
2024-03-16T05:54:21.946Z,100197.81
2024-03-16T05:56:49.318Z,100198.09
2024-03-16T05:59:16.095Z,100200.50
2024-03-16T06:01:42.848Z,100196.97
2024-03-16T06:04:10.179Z,100195.12
2024-03-16T06:06:37.027Z,100198.59
2024-03-16T06:09:09.909Z,100196.97
2024-03-16T06:11:37.063Z,100196.97
2024-03-16T06:14:07.614Z,100204.56
2024-03-16T06:16:34.639Z,100197.59
2024-03-16T06:19:02.040Z,100201.34
2024-03-16T06:21:30.567Z,100203.53
2024-03-16T06:24:00.341Z,100205.69
2024-03-16T06:26:29.091Z,100203.00
2024-03-16T06:29:00.228Z,100212.16
2024-03-16T06:37:11.877Z,100215.16
2024-03-16T06:39:44.480Z,100226.41
2024-03-16T06:42:15.074Z,100237.97
2024-03-16T06:44:48.169Z,100237.97
2024-03-16T06:47:17.229Z,100238.78
2024-03-16T06:50:06.814Z,100236.91
2024-03-16T06:52:33.566Z,100246.84
2024-03-16T06:55:01.212Z,100246.31
2024-03-16T06:57:34.117Z,100243.34
2024-03-16T07:00:03.577Z,100245.53
2024-03-16T07:02:49.971Z,100253.59
2024-03-16T07:05:17.808Z,100252.00
2024-03-16T07:07:50.446Z,100254.69
2024-03-16T07:10:18.876Z,100254.69
2024-03-16T07:13:07.990Z,100249.31
2024-03-16T07:15:41.604Z,100249.31
2024-03-16T07:21:00.713Z,100263.81
2024-03-16T07:23:27.398Z,100270.81
2024-03-16T07:25:56.875Z,100283.16
2024-03-16T07:28:24.447Z,100295.50
2024-03-16T07:30:56.146Z,100308.47
2024-03-16T07:33:22.954Z,100305.47
2024-03-16T07:35:53.241Z,100308.69
2024-03-16T07:38:23.109Z,100306.28
2024-03-16T07:40:51.801Z,100317.56
2024-03-16T07:43:20.767Z,100316.75
2024-03-16T07:45:52.053Z,100318.63
2024-03-16T07:48:22.293Z,100321.31
2024-03-16T07:51:09.827Z,100326.69
2024-03-16T07:53:36.861Z,100332.59
2024-03-16T07:56:03.544Z,100324.81
2024-03-16T07:58:51.665Z,100333.97
2024-03-16T08:01:20.946Z,100324.28
2024-03-16T08:03:47.857Z,100324.59
2024-03-16T08:06:40.173Z,100323.50
2024-03-16T08:12:27.280Z,100324.00
2024-03-16T08:15:00.275Z,100325.63
2024-03-16T08:23:15.651Z,100317.09
2024-03-16T08:28:29.917Z,100319.84
2024-03-16T08:37:00.158Z,100321.38
2024-03-16T08:39:49.240Z,100325.66
2024-03-16T08:45:44.592Z,100319.22
2024-03-16T08:51:02.070Z,100326.19
2024-03-16T08:53:29.031Z,100322.41
2024-03-16T08:56:00.141Z,100325.09
2024-03-16T08:58:29.855Z,100324.00
2024-03-16T09:01:01.332Z,100329.38
2024-03-16T09:04:08.238Z,100328.56
2024-03-16T09:06:42.568Z,100331.56
2024-03-16T09:09:18.934Z,100335.34
2024-03-16T09:11:45.488Z,100343.69
2024-03-16T09:14:12.218Z,100335.91
2024-03-16T09:16:42.578Z,100340.50
2024-03-16T09:19:09.823Z,100336.19
2024-03-16T09:21:37.271Z,100341.28
2024-03-16T09:24:05.100Z,100338.28
2024-03-16T09:26:32.534Z,100341.00
2024-03-16T09:29:00.173Z,100343.41
2024-03-16T09:31:28.714Z,100346.09
2024-03-16T09:33:58.839Z,100343.13
2024-03-16T09:36:28.865Z,100342.31
2024-03-16T09:39:03.697Z,100347.69
2024-03-16T09:41:31.613Z,100350.38
